ノヴォシビルスク の空港の天気 - METARとTAF

トルマチェヴォ空港(ノヴォシビルスク) ( UNNT / OVB ) - ロシア ノヴォシビルスク
飛行場実況気象(Metar)
観測時間04/21 22:30 OMST (04/21 16:30 UTC)
風向・風速北 2m/s
視程10km以上
天気現象
なし
気温-1℃
湿度59%
気圧1020hPa
METARUNNT 211630Z 01002MPS CAVOK M01/M08 Q1020 R25/090070 R34/090070 NOSIG RMK QFE755/1007
過去の天気等 Google飛行場航空写真 Wunderground天気予報

過去48時間のMETAR

飛行場予報(TAF)
発表時間: 4/21 20:00 OMST (4/21 14:00 UTC)
予報対象時間: 21日21時 OMST ~ 22日21時 OMST
風向・風速北北西 5m/s
視程10km以上
なし
22日0時 OMST ~ 22日2時 OMST に徐々に
風向・風速東 3m/s 瞬間風速 8m/s
22日0時 OMST ~ 22日9時 OMST に一時的に
視程3100m
天気現象
TAF UNNT 211400Z 2115/2215 34005MPS CAVOK
BECMG 2118/2120 10003G08MPS
TEMPO 2118/2203 3100 FU